• Join FlightAware (Why Join?)
  • Login
  • US Flag 
10:07PM EDT


 

Airport Tracker/Info


-or-


 

Live Flight TrackerFlight Track Log ✈ N449ND ✈ 17-Mar-2014 ✈ KFPR - KFPR

Flight Track Log - Related Links

Times and Time Zones

All times are in EDT time to prevent confusion due to time zone crossing. See the N449ND flight status page for this flight to view local times or setup timezone preferences in your user account.

Time Position Orientation Groundspeed Altitude Reporting Facility
EDT Latitude Longitude Course Direction KTS MPH feet Rate Location/Type
11:50AM 27.4800 -80.3539 North 61 70 500  Level Miami Center
11:51AM 27.4600 -80.3519 175° South 68 78 1,200 600 Climbing Miami Center
11:52AM 27.4422 -80.3483 170° South 66 76 1,800 480 Climbing Miami Center
11:53AM 27.4244 -80.3431 165° South 65 75 2,300 480 Climbing Miami Center
11:54AM 27.4975 -80.3726 North  Level Estimated
11:54AM 27.4214 -80.3622 260° West 70 81 2,800  Level Miami Center
11:55AM 27.4975 -80.3726 North  Level Estimated
11:55AM 27.4261 -80.3883 282° West 80 92 3,100  Level Miami Center
11:56AM 27.4383 -80.4128 299° West 97 112 3,000 -60 Descending Miami Center
11:57AM 27.4717 -80.4186 351° North 120 138 3,000  Level Miami Center
11:58AM 27.5067 -80.4272 348° North 120 138 3,100  Climbing Miami Center
11:59AM 27.5414 -80.4400 342° North 123 142 3,100 -120 Level Miami Center
12:00PM 27.5678 -80.4556 332° Northwest 104 120 2,900  Descending Miami Center
12:01PM 27.5619 -80.4761 252° West 71 82 3,100  Climbing Miami Center
12:02PM 27.5614 -80.4994 268° West 74 85 3,000 -60 Descending Miami Center
12:03PM 27.5650 -80.5256 279° West 80 92 3,000  Level Miami Center
12:04PM 27.5717 -80.5508 287° West 80 92 3,000  Level Miami Center
12:05PM 27.5869 -80.5761 304° West 90 104 3,100  Climbing Miami Center
12:06PM 27.6092 -80.5986 318° Northwest 103 119 3,100 -60 Level Miami Center
12:07PM 27.6364 -80.6158 331° Northwest 114 131 3,000 -60 Descending Miami Center
12:08PM 27.6719 -80.6219 351° North 118 136 3,000 -240 Level Miami Center
12:09PM 27.7089 -80.6189 North 125 144 2,600 -600 Descending Miami Center
12:10PM 27.7178 -80.5900 71° East 105 121 1,800 -480 Descending Miami Center
12:11PM 27.7053 -80.5667 121° Southeast 84 97 1,600 -300 Descending Miami Center
12:13PM 27.6944 -80.5381 113° Southeast 91 105 1,300 -180 Descending Miami Center
12:14PM 27.6844 -80.5081 111° Southeast 95 109 1,300 -60 Level Miami Center
12:15PM 27.6753 -80.4803 110° East 95 109 1,200 -420 Descending Miami Center
12:16PM 27.6672 -80.4575 112° Southeast 83 96 500 -420 Descending Miami Center
12:17PM 27.6583 -80.4306 110° East 84 97 400 240 Descending Miami Center
12:18PM 27.6625 -80.4044 80° East 105 121 1,000 540 Climbing Miami Center
12:19PM 27.6942 -80.3939 16° North 113 130 1,600 480 Climbing Miami Center
12:20PM 27.7267 -80.3822 18° North 114 131 2,100 480 Climbing Miami Center
12:21PM 27.7583 -80.3722 16° North 114 131 2,700 480 Climbing Miami Center
12:22PM 27.7922 -80.3600 18° North 118 136 3,200 420 Climbing Miami Center
12:23PM 27.8008 -80.3717 310° West 70 81 3,600 360 Climbing Miami Center
12:24PM 27.7892 -80.3786 208° Southwest 52 60 4,000 180 Climbing Miami Center
12:25PM 27.7753 -80.3931 223° Southwest 60 69 4,000  Level Miami Center
12:26PM 27.7567 -80.3856 160° South 73 84 4,000  Level Miami Center
12:27PM 27.7367 -80.3728 151° Southeast 78 90 4,000  Level Miami Center
12:28PM 27.7169 -80.3650 161° South 77 89 4,000  Level Miami Center
12:29PM 27.6969 -80.3636 176° South 71 82 4,100  Climbing Miami Center
12:30PM 27.6761 -80.3631 179° South 71 82 4,000 -60 Descending Miami Center
12:31PM 27.6586 -80.3653 186° South 66 76 4,000  Level Miami Center
12:32PM 27.6619 -80.3878 280° West 75 86 4,000  Level Miami Center
12:33PM 27.6667 -80.4133 282° West 76 87 4,000  Level Miami Center
12:34PM 27.6708 -80.4386 281° West 77 89 4,000  Level Miami Center
12:35PM 27.6747 -80.4642 280° West 77 89 4,000  Level Miami Center
12:36PM 27.6783 -80.4900 279° West 78 90 4,000  Level Miami Center
12:37PM 27.6767 -80.5128 265° West 73 84 4,000  Level Miami Center
12:38PM 27.6892 -80.5289 311° West 104 120 4,000  Level Miami Center
12:39PM 27.6969 -80.5003 73° East 104 120 4,000  Level Miami Center
12:40PM 27.6789 -80.4897 153° Southeast 76 87 4,000  Level Miami Center
12:42PM 27.6642 -80.4786 146° Southeast 82 94 4,000  Level Miami Center
12:43PM 27.6658 -80.5036 274° West 80 92 4,100  Climbing Miami Center
12:44PM 27.6642 -80.5281 266° West 78 90 4,000 -60 Descending Miami Center
12:45PM 27.6908 -80.5239 North 121 139 4,000  Level Miami Center
12:46PM 27.6803 -80.4961 113° Southeast 91 105 4,000  Level Miami Center
12:47PM 27.6658 -80.4742 127° Southeast 89 102 4,100  Climbing Miami Center
12:48PM 27.6625 -80.4956 260° West 71 82 4,100 -60 Level Miami Center
12:49PM 27.6592 -80.5183 261° West 72 83 4,000 -60 Descending Miami Center
12:50PM 27.6553 -80.5386 258° West 69 79 4,000  Level Miami Center
12:51PM 27.6803 -80.5394 358° North 130 150 4,100  Climbing Miami Center
12:52PM 27.6831 -80.5017 85° East 116 133 4,000 -60 Descending Miami Center
12:53PM 27.6681 -80.4742 122° Southeast 106 122 4,000  Level Miami Center
12:54PM 27.6633 -80.4936 255° West 66 76 4,100  Climbing Miami Center
12:55PM 27.6619 -80.5167 266° West 67 77 4,000 -60 Descending Miami Center
12:56PM 27.6608 -80.5400 267° West 68 78 4,000  Level Miami Center
12:57PM 27.6492 -80.5522 223° Southwest 68 78 4,000  Level Miami Center
12:58PM 27.6336 -80.5586 200° South 62 71 4,000  Level Miami Center
12:59PM 27.6192 -80.5700 215° Southwest 62 71 4,100  Climbing Miami Center
01:00PM 27.6033 -80.5811 212° Southwest 62 71 4,100 -240 Level Miami Center
01:01PM 27.5925 -80.5939 226° Southwest 58 67 3,700 -660 Descending Miami Center
01:02PM 27.5756 -80.5950 183° South 64 74 2,800 -780 Descending Miami Center
01:03PM 27.5553 -80.5978 187° South 67 77 2,100 -360 Descending Miami Center
01:04PM 27.5339 -80.5953 174° South 71 82 2,100  Level Miami Center
01:05PM 27.5139 -80.5953 180° South 71 82 2,200 -120 Climbing Miami Center
01:06PM 27.5008 -80.5800 134° Southeast 95 109 1,900 -180 Descending Miami Center
01:07PM 27.5003 -80.5447 91° East 105 121 1,900  Level Miami Center
01:08PM 27.5003 -80.5103 90° East 105 121 2,000  Climbing Miami Center
01:10PM 27.4992 -80.4747 92° East 106 122 1,900 -300 Descending Miami Center
01:11PM 27.4994 -80.4408 89° East 106 122 1,400 -540 Descending Miami Center
01:12PM 27.4978 -80.4111 94° East 97 112 800 -480 Descending Miami Center
01:13PM 27.5011 -80.3803 83° East 97 112 500 120 Descending Miami Center
01:14PM 27.4878 -80.3675 140° Southeast 77 89 1,100 660 Climbing Miami Center
01:15PM 27.4689 -80.3736 196° South 69 79 1,900 660 Climbing Miami Center
01:16PM 27.4700 -80.3956 273° West 78 90 2,500 480 Climbing Miami Center
01:17PM 27.4753 -80.4178 285° West 71 82 3,000 240 Climbing Miami Center
01:18PM 27.4806 -80.4436 283° West 78 90 3,000  Level Miami Center
01:19PM 27.4814 -80.4694 272° West 78 90 3,100 60 Climbing Miami Center
01:20PM 27.4781 -80.4922 261° West 77 89 3,200  Climbing Miami Center
01:21PM 27.4739 -80.5164 259° West 76 87 3,100 -120 Descending Miami Center
01:22PM 27.4711 -80.5403 263° West 75 86 3,000 -120 Descending Miami Center
01:23PM 27.4753 -80.5633 282° West 82 94 2,900 -420 Descending Miami Center
01:24PM 27.4978 -80.5453 35° Northeast 125 144 2,200 -480 Descending Miami Center
01:25PM 27.4978 -80.5106 90° East 109 125 1,900 -240 Descending Miami Center
01:26PM 27.4983 -80.4761 89° East 108 124 1,800 -300 Descending Miami Center
01:27PM 27.4972 -80.4464 92° East 98 113 1,300 -540 Descending Miami Center
01:28PM 27.4975 -80.4147 89° East 97 112 700 -480 Descending Miami Center
01:29PM 27.5014 -80.3828 82° East 98 113 400 -300 Descending Miami Center